Time;durP1;ratioP1;P1;durP2;ratioP2;P2;SDS_P1;SDS_P2;PMS_P1;PMS_P2;Temp;Humidity;BMP_temperature;BMP_pressure;BME280_temperature;BME280_humidity;BME280_pressure;Samples;Min_cycle;Max_cycle;Signal;HPM_P1;HPM_P2
2022/01/04 00:02:11;;;;;;;5.25;1.90;;;12.20;1.00;;;;;;6123861;23;20033;-85
2022/01/04 00:04:36;;;;;;;3.63;1.70;;;12.20;1.00;;;;;;6123636;23;20037;-85
2022/01/04 00:07:02;;;;;;;4.88;2.03;;;12.20;1.00;;;;;;6125555;23;20013;-84
2022/01/04 00:09:28;;;;;;;4.38;2.05;;;12.20;1.00;;;;;;6124973;23;20002;-85
2022/01/04 00:14:19;;;;;;;3.25;1.83;;;12.30;1.00;;;;;;6126078;23;20021;-85
2022/01/04 00:16:45;;;;;;;4.78;2.05;;;12.30;1.00;;;;;;6125213;23;20060;-85
2022/01/04 00:19:11;;;;;;;4.30;1.90;;;12.30;1.00;;;;;;6125972;23;20029;-85
2022/01/04 00:21:37;;;;;;;3.85;1.73;;;12.30;1.00;;;;;;6125261;23;20437;-85
2022/01/04 00:24:04;;;;;;;3.22;2.17;;;12.30;1.00;;;;;;6125591;23;20544;-85
2022/01/04 00:26:30;;;;;;;2.22;1.38;;;12.30;1.00;;;;;;6125272;23;20457;-84
2022/01/04 00:28:56;;;;;;;2.53;1.60;;;12.40;1.00;;;;;;6125932;23;20148;-85
2022/01/04 00:31:22;;;;;;;2.95;1.42;;;12.30;1.00;;;;;;6125100;23;20452;-85
2022/01/04 00:33:48;;;;;;;3.10;1.73;;;12.40;1.00;;;;;;6125909;23;20053;-85
2022/01/04 00:36:13;;;;;;;2.65;1.52;;;12.60;1.00;;;;;;6124604;23;20020;-85
2022/01/04 00:38:39;;;;;;;5.03;1.75;;;12.40;1.00;;;;;;6125819;23;20073;-85
2022/01/04 00:41:05;;;;;;;2.58;1.45;;;12.40;1.00;;;;;;6125272;23;20314;-85
2022/01/04 00:43:31;;;;;;;1.58;1.30;;;12.30;1.00;;;;;;6125340;23;20441;-85
2022/01/04 00:45:56;;;;;;;2.25;1.27;;;12.30;1.00;;;;;;6124963;23;20009;-85
2022/01/04 00:50:48;;;;;;;3.60;1.45;;;12.00;1.00;;;;;;6123811;23;20014;-85
2022/01/04 00:53:14;;;;;;;2.55;1.55;;;12.00;1.00;;;;;;6125859;23;20002;-85
2022/01/04 00:55:40;;;;;;;2.95;1.60;;;12.10;1.00;;;;;;6125126;23;20014;-85
2022/01/04 00:58:05;;;;;;;3.58;1.80;;;12.10;1.00;;;;;;6125859;23;20013;-85
2022/01/04 01:00:32;;;;;;;2.65;1.65;;;11.90;97.80;;;;;;6124685;23;20373;-85
2022/01/04 01:02:58;;;;;;;4.60;2.10;;;11.60;99.90;;;;;;6125310;23;20341;-85
2022/01/04 01:05:26;;;;;;;3.40;1.52;;;12.00;29.60;;;;;;6124864;23;20425;-84
2022/01/04 01:07:56;;;;;;;2.40;1.48;;;12.10;1.00;;;;;;6124947;23;20010;-85
2022/01/04 01:10:44;;;;;;;3.65;1.63;;;11.80;1.00;;;;;;6125244;23;20093;-85
2022/01/04 01:13:11;;;;;;;3.75;1.75;;;11.80;1.00;;;;;;6125273;23;20018;-85
2022/01/04 01:15:40;;;;;;;4.53;1.70;;;12.00;1.00;;;;;;6124835;23;20040;-85
2022/01/04 01:18:05;;;;;;;3.30;1.60;;;12.10;1.00;;;;;;6098853;23;20006;-85
2022/01/04 01:20:31;;;;;;;3.03;1.58;;;12.10;1.00;;;;;;6124484;23;20002;-85
2022/01/04 01:22:57;;;;;;;3.00;1.95;;;12.10;1.00;;;;;;6125349;23;20012;-85
2022/01/04 01:25:22;;;;;;;2.67;1.65;;;12.10;1.00;;;;;;6125366;23;20063;-85
2022/01/04 01:27:48;;;;;;;3.42;1.30;;;11.30;1.00;;;;;;6125060;23;20002;-85
2022/01/04 01:30:14;;;;;;;2.38;1.42;;;11.90;1.00;;;;;;6124564;23;20002;-85
2022/01/04 01:32:40;;;;;;;2.85;1.73;;;11.80;1.00;;;;;;6125357;23;20002;-84
2022/01/04 01:35:06;;;;;;;2.65;1.52;;;11.90;1.00;;;;;;6124512;23;20006;-85
2022/01/04 01:37:33;;;;;;;1.42;1.30;;;12.00;1.00;;;;;;6124441;23;20009;-85
2022/01/04 01:39:58;;;;;;;3.33;1.70;;;12.10;1.00;;;;;;6125420;23;19998;-85
2022/01/04 01:42:24;;;;;;;4.40;1.52;;;12.10;1.00;;;;;;6124777;23;20005;-85
2022/01/04 01:44:51;;;;;;;2.95;1.50;;;12.10;1.00;;;;;;6125177;23;20006;-85
2022/01/04 01:47:16;;;;;;;3.55;1.70;;;12.10;1.00;;;;;;6124658;23;20029;-85
2022/01/04 01:49:42;;;;;;;2.33;1.55;;;12.30;1.00;;;;;;6124405;23;20010;-85
2022/01/04 01:52:09;;;;;;;3.25;1.40;;;12.10;1.00;;;;;;6124544;23;20006;-85
2022/01/04 01:54:34;;;;;;;3.13;2.00;;;12.00;1.00;;;;;;6124603;23;20013;-85
2022/01/04 01:57:00;;;;;;;3.03;1.80;;;12.30;1.00;;;;;;6098632;23;20018;-85
2022/01/04 01:59:26;;;;;;;2.97;1.77;;;12.00;1.00;;;;;;6124888;23;20511;-85
2022/01/04 02:01:51;;;;;;;3.55;2.05;;;12.00;1.00;;;;;;6124617;23;20012;-85
2022/01/04 02:04:17;;;;;;;4.00;2.00;;;12.00;1.00;;;;;;6124417;23;19998;-84
2022/01/04 02:06:43;;;;;;;3.45;1.80;;;12.00;1.00;;;;;;6124538;23;20002;-85
2022/01/04 02:09:09;;;;;;;5.82;2.10;;;12.10;1.00;;;;;;6124524;23;20002;-85
2022/01/04 02:11:36;;;;;;;5.15;2.08;;;12.00;1.00;;;;;;6124689;23;20006;-85
2022/01/04 02:14:03;;;;;;;3.65;1.77;;;12.10;1.00;;;;;;6123963;23;20093;-85
2022/01/04 02:16:30;;;;;;;3.15;1.70;;;11.80;1.00;;;;;;6124608;23;20092;-85
2022/01/04 02:19:00;;;;;;;4.03;2.00;;;11.90;1.00;;;;;;6124347;23;20492;-85
2022/01/04 02:21:26;;;;;;;3.15;1.80;;;11.90;1.00;;;;;;6124304;23;20081;-85
2022/01/04 02:23:51;;;;;;;4.20;1.83;;;11.80;1.00;;;;;;6124806;23;20035;-85
2022/01/04 02:26:18;;;;;;;4.13;2.20;;;12.10;1.00;;;;;;6124329;23;20084;-85
2022/01/04 02:28:45;;;;;;;6.03;1.77;;;11.80;1.00;;;;;;6123662;23;20013;-85
2022/01/04 02:31:11;;;;;;;2.88;1.90;;;11.80;1.00;;;;;;6124640;23;20429;-85
2022/01/04 02:33:36;;;;;;;2.85;2.10;;;12.20;1.00;;;;;;6124130;23;20352;-84
2022/01/04 02:36:02;;;;;;;2.88;1.80;;;11.80;1.00;;;;;;6124594;23;20021;-85
2022/01/04 02:38:27;;;;;;;5.82;2.55;;;11.80;1.00;;;;;;6124174;23;20467;-85
2022/01/04 02:40:53;;;;;;;3.80;2.10;;;11.90;1.00;;;;;;6124235;23;20005;-85
2022/01/04 02:43:19;;;;;;;4.20;1.92;;;11.80;1.00;;;;;;6123898;23;20086;-85
2022/01/04 02:45:44;;;;;;;3.40;2.10;;;11.70;1.00;;;;;;6124618;23;20081;-85
2022/01/04 02:48:10;;;;;;;6.28;2.50;;;11.70;1.00;;;;;;6123859;23;20433;-85
2022/01/04 02:50:36;;;;;;;4.65;2.53;;;11.70;1.00;;;;;;6123925;23;20434;-85
2022/01/04 02:53:01;;;;;;;5.88;2.33;;;11.70;1.00;;;;;;6124729;23;20135;-85
2022/01/04 02:55:27;;;;;;;3.30;2.30;;;11.70;1.00;;;;;;6124273;23;20101;-85
2022/01/04 02:57:53;;;;;;;4.35;2.33;;;11.60;1.00;;;;;;6124343;23;20085;-85
2022/01/04 03:00:19;;;;;;;5.00;2.40;;;11.60;1.00;;;;;;6124358;23;20006;-85
2022/01/04 03:02:45;;;;;;;4.97;2.60;;;11.60;1.00;;;;;;6123393;23;20374;-85
2022/01/04 03:05:11;;;;;;;4.70;2.50;;;11.60;1.00;;;;;;6123872;23;20012;-85
2022/01/04 03:07:37;;;;;;;6.97;3.70;;;11.60;1.00;;;;;;6124140;23;20061;-85
2022/01/04 03:10:04;;;;;;;3.33;2.50;;;11.50;1.00;;;;;;6123865;23;20002;-85
2022/01/04 03:12:30;;;;;;;3.78;2.35;;;11.50;1.00;;;;;;6124215;23;20461;-85
2022/01/04 03:14:56;;;;;;;4.28;2.70;;;11.50;1.00;;;;;;6123930;23;20025;-85
2022/01/04 03:17:21;;;;;;;4.65;2.63;;;11.40;1.00;;;;;;6123463;23;20421;-85
2022/01/04 03:19:47;;;;;;;4.20;2.60;;;11.40;1.00;;;;;;6124400;23;20005;-85
2022/01/04 03:22:13;;;;;;;4.70;2.42;;;11.40;1.00;;;;;;6124141;23;20010;-84
2022/01/04 03:24:39;;;;;;;5.60;2.80;;;11.70;1.00;;;;;;6098009;23;20014;-85
2022/01/04 03:27:05;;;;;;;3.53;2.47;;;11.80;1.00;;;;;;6124081;23;20009;-85
2022/01/04 03:29:30;;;;;;;4.47;2.58;;;11.30;1.00;;;;;;6124201;23;20006;-85
2022/01/04 03:31:57;;;;;;;4.47;2.47;;;11.30;1.00;;;;;;6123885;23;20009;-85
2022/01/04 03:34:24;;;;;;;4.63;2.97;;;11.30;1.00;;;;;;6123192;23;20002;-85
2022/01/04 03:36:50;;;;;;;5.30;3.28;;;11.20;1.00;;;;;;6124206;23;20017;-85
2022/01/04 03:39:15;;;;;;;4.68;2.83;;;11.20;1.00;;;;;;6123775;23;19998;-85
2022/01/04 03:41:43;;;;;;;7.22;3.10;;;11.10;1.00;;;;;;6125821;23;20017;-85
2022/01/04 03:44:16;;;;;;;6.00;3.30;;;11.10;1.00;;;;;;6126259;23;20006;-85
2022/01/04 03:46:42;;;;;;;6.60;3.03;;;11.60;1.00;;;;;;6099395;23;20381;-84
2022/01/04 03:49:08;;;;;;;4.80;2.58;;;11.00;1.00;;;;;;6126254;23;20029;-85
2022/01/04 03:51:33;;;;;;;6.65;2.83;;;11.40;1.00;;;;;;6126216;23;20037;-85
2022/01/04 03:53:59;;;;;;;6.68;3.20;;;11.10;1.00;;;;;;6125732;23;20002;-85
2022/01/04 03:56:25;;;;;;;5.78;2.92;;;11.10;1.00;;;;;;6125935;23;20017;-85
2022/01/04 03:58:50;;;;;;;6.72;2.78;;;11.00;1.00;;;;;;6126277;23;20417;-85
2022/01/04 04:01:16;;;;;;;5.97;2.78;;;11.00;1.00;;;;;;6125281;23;20002;-85
2022/01/04 04:03:41;;;;;;;4.90;2.90;;;11.00;1.00;;;;;;6124824;23;20024;-85
2022/01/04 04:06:07;;;;;;;4.78;2.42;;;11.00;1.00;;;;;;6125566;23;20081;-85
2022/01/04 04:08:33;;;;;;;4.13;2.60;;;11.00;1.00;;;;;;6125650;23;20006;-85
2022/01/04 04:10:59;;;;;;;5.22;2.70;;;11.00;1.00;;;;;;6125315;23;20014;-85
2022/01/04 04:13:24;;;;;;;3.45;2.72;;;10.90;1.00;;;;;;6125986;23;20005;-85
2022/01/04 04:15:50;;;;;;;6.53;2.40;;;10.90;1.00;;;;;;6124943;23;20022;-85
2022/01/04 04:18:17;;;;;;;5.70;2.90;;;10.90;1.00;;;;;;6125716;23;20457;-85
2022/01/04 04:20:43;;;;;;;5.80;3.13;;;10.80;1.00;;;;;;6126282;23;20014;-85
2022/01/04 04:23:10;;;;;;;4.97;2.47;;;10.90;1.00;;;;;;6125539;23;20033;-85
2022/01/04 04:25:36;;;;;;;4.72;2.92;;;10.80;1.00;;;;;;6125495;23;20006;-85
2022/01/04 04:28:01;;;;;;;5.03;2.80;;;10.90;1.00;;;;;;6126011;23;20001;-85
2022/01/04 04:30:27;;;;;;;5.90;2.53;;;10.90;1.00;;;;;;6125889;23;20421;-85
2022/01/04 04:32:53;;;;;;;3.85;2.15;;;10.90;1.00;;;;;;6125059;23;20006;-85
2022/01/04 04:35:19;;;;;;;6.18;2.45;;;11.00;1.00;;;;;;6125608;23;20018;-85
2022/01/04 04:37:44;;;;;;;3.13;2.10;;;11.10;1.00;;;;;;6124573;23;20325;-84
2022/01/04 04:40:11;;;;;;;3.67;2.05;;;11.10;1.00;;;;;;6100363;23;20013;-85
2022/01/04 04:42:37;;;;;;;7.20;2.42;;;11.20;1.00;;;;;;6125600;23;19998;-84
2022/01/04 04:45:03;;;;;;;7.03;2.45;;;11.10;1.00;;;;;;6125506;23;20005;-85
2022/01/04 04:47:29;;;;;;;4.50;2.75;;;11.10;1.00;;;;;;6124573;23;20033;-85
2022/01/04 04:49:54;;;;;;;4.72;2.55;;;11.00;1.00;;;;;;6125575;23;20004;-85
2022/01/04 04:52:21;;;;;;;4.75;2.50;;;11.10;1.00;;;;;;6098739;23;20006;-85
2022/01/04 04:54:47;;;;;;;5.40;2.65;;;11.00;1.00;;;;;;6126632;23;20122;-84
2022/01/04 04:57:13;;;;;;;5.13;2.80;;;11.10;1.00;;;;;;6124705;23;20034;-85
2022/01/04 04:59:39;;;;;;;4.93;2.53;;;11.10;1.00;;;;;;6125735;23;20002;-85
2022/01/04 05:02:07;;;;;;;5.65;3.25;;;11.10;1.00;;;;;;6124582;23;20013;-85
2022/01/04 05:04:33;;;;;;;3.95;2.80;;;11.10;1.00;;;;;;6125654;23;20049;-85
2022/01/04 05:06:59;;;;;;;6.15;2.90;;;11.70;1.00;;;;;;6125261;23;20013;-86
2022/01/04 05:09:24;;;;;;;3.85;2.78;;;11.10;1.00;;;;;;6124665;23;20006;-85
2022/01/04 05:11:50;;;;;;;5.38;3.38;;;11.10;1.00;;;;;;6125178;23;20029;-85
2022/01/04 05:14:16;;;;;;;5.60;2.92;;;11.00;1.00;;;;;;6125262;23;20010;-85
2022/01/04 05:16:42;;;;;;;6.60;2.95;;;11.00;1.00;;;;;;6124317;23;20010;-85
2022/01/04 05:19:07;;;;;;;5.07;2.55;;;11.00;1.00;;;;;;6125498;23;20002;-85
2022/01/04 05:21:33;;;;;;;5.55;3.47;;;10.90;1.00;;;;;;6123708;23;20088;-85
2022/01/04 05:23:58;;;;;;;4.60;3.03;;;10.90;1.00;;;;;;6124832;23;20032;-85
2022/01/04 05:26:24;;;;;;;4.45;3.10;;;10.90;1.00;;;;;;6125021;23;20021;-85
2022/01/04 05:28:50;;;;;;;5.15;2.80;;;10.90;1.00;;;;;;6124896;23;20009;-84
2022/01/04 05:31:15;;;;;;;6.47;2.92;;;10.80;1.00;;;;;;6123588;23;20026;-85
2022/01/04 05:33:42;;;;;;;5.55;3.08;;;10.80;1.00;;;;;;6125783;23;20416;-86
2022/01/04 05:36:07;;;;;;;8.05;3.10;;;10.80;1.00;;;;;;6124175;23;20021;-84
2022/01/04 05:38:33;;;;;;;6.05;3.10;;;10.70;1.00;;;;;;6124931;23;20002;-84
2022/01/04 05:40:59;;;;;;;6.30;3.20;;;10.70;1.00;;;;;;6125375;23;20005;-85
2022/01/04 05:43:25;;;;;;;5.10;2.88;;;10.70;1.00;;;;;;6125341;23;20471;-85
2022/01/04 05:45:51;;;;;;;6.43;3.03;;;10.60;1.00;;;;;;6124200;23;20002;-85
2022/01/04 05:48:20;;;;;;;6.05;3.40;;;10.60;1.00;;;;;;6124823;23;20013;-85
2022/01/04 05:50:46;;;;;;;6.80;3.30;;;10.70;1.00;;;;;;6124935;23;20017;-85
2022/01/04 05:53:12;;;;;;;6.10;3.15;;;10.60;1.00;;;;;;6123961;23;20002;-84
2022/01/04 05:55:38;;;;;;;7.75;3.58;;;10.50;1.00;;;;;;6124644;23;20112;-85
2022/01/04 05:58:03;;;;;;;8.15;3.55;;;10.50;1.00;;;;;;6125382;23;20472;-85
2022/01/04 06:00:29;;;;;;;7.13;3.55;;;10.50;1.00;;;;;;6124643;23;20069;-85
2022/01/04 06:02:55;;;;;;;7.47;3.45;;;10.50;1.00;;;;;;6124512;23;20121;-85
2022/01/04 06:05:21;;;;;;;6.85;3.72;;;10.50;1.00;;;;;;6124356;23;20002;-85
2022/01/04 06:07:46;;;;;;;5.53;3.42;;;10.70;1.00;;;;;;6124756;23;20073;-85
2022/01/04 06:10:14;;;;;;;10.15;3.75;;;10.50;1.00;;;;;;6124829;23;20077;-85
2022/01/04 06:15:07;;;;;;;9.32;3.90;;;10.60;1.00;;;;;;6124651;23;20053;-85
2022/01/04 06:17:38;;;;;;;5.53;3.20;;;10.60;1.00;;;;;;6124056;23;20006;-85
2022/01/04 06:20:06;;;;;;;5.95;3.30;;;10.60;1.00;;;;;;6123371;23;20060;-85
2022/01/04 06:22:32;;;;;;;7.00;3.70;;;10.60;1.00;;;;;;6124532;23;20076;-85
2022/01/04 06:24:58;;;;;;;5.72;3.33;;;10.60;1.00;;;;;;6124533;23;20077;-85
2022/01/04 06:27:24;;;;;;;9.80;3.33;;;10.60;1.00;;;;;;6123811;23;20597;-85
2022/01/04 06:29:50;;;;;;;5.25;3.35;;;10.60;1.00;;;;;;6124871;23;20337;-85
2022/01/04 06:32:16;;;;;;;6.72;3.20;;;10.50;1.00;;;;;;6123535;23;20070;-85
2022/01/04 06:34:43;;;;;;;6.50;3.38;;;10.60;1.00;;;;;;6098269;23;20034;-85
2022/01/04 06:37:09;;;;;;;7.82;3.35;;;10.50;1.00;;;;;;6124420;23;20030;-85
2022/01/04 06:39:35;;;;;;;5.22;3.42;;;10.50;1.00;;;;;;6098524;23;20006;-85
2022/01/04 06:42:01;;;;;;;5.95;3.15;;;10.50;1.00;;;;;;6124454;23;20006;-84
2022/01/04 06:44:27;;;;;;;6.88;3.22;;;10.50;1.00;;;;;;6124130;23;19998;-85
2022/01/04 06:46:53;;;;;;;7.75;3.40;;;10.50;1.00;;;;;;6123746;23;20005;-85
2022/01/04 06:49:19;;;;;;;6.07;3.20;;;10.50;1.00;;;;;;6123755;23;20112;-85
2022/01/04 06:51:47;;;;;;;5.45;3.60;;;10.50;1.00;;;;;;6124628;23;20074;-85
2022/01/04 06:54:14;;;;;;;6.07;3.20;;;10.50;1.00;;;;;;6125031;23;20010;-85
2022/01/04 06:56:40;;;;;;;6.70;3.40;;;10.50;1.00;;;;;;6123727;23;20041;-85
2022/01/04 06:59:07;;;;;;;6.57;3.13;;;10.50;1.00;;;;;;6124256;23;20013;-85
2022/01/04 07:01:34;;;;;;;8.15;3.30;;;10.40;1.00;;;;;;6123489;23;20040;-84
2022/01/04 07:04:00;;;;;;;6.57;3.45;;;10.50;1.00;;;;;;6097587;23;20057;-85
2022/01/04 07:06:26;;;;;;;5.65;3.38;;;10.50;1.00;;;;;;6124456;23;20042;-85
2022/01/04 07:08:51;;;;;;;7.63;3.25;;;10.40;1.00;;;;;;6124359;23;20006;-85
2022/01/04 07:11:17;;;;;;;6.95;3.42;;;10.70;1.00;;;;;;6124108;23;20006;-85
2022/01/04 07:13:43;;;;;;;8.63;3.35;;;10.40;1.00;;;;;;6097932;23;20044;-85
2022/01/04 07:16:09;;;;;;;5.97;3.20;;;10.80;1.00;;;;;;6123589;23;20009;-85
2022/01/04 07:18:34;;;;;;;5.55;3.35;;;10.50;1.00;;;;;;6123730;23;20006;-85
2022/01/04 07:21:01;;;;;;;9.45;4.18;;;10.80;1.00;;;;;;6125281;23;20006;-85
2022/01/04 07:23:27;;;;;;;5.22;3.10;;;10.50;1.00;;;;;;6123848;23;20552;-85
2022/01/04 07:25:53;;;;;;;6.20;3.38;;;10.50;1.00;;;;;;6123880;23;20029;-86
2022/01/04 07:28:19;;;;;;;7.93;3.67;;;10.50;1.00;;;;;;6097904;23;20006;-86
2022/01/04 07:30:44;;;;;;;4.82;2.97;;;10.50;1.00;;;;;;6123829;23;20076;-89
2022/01/04 07:33:10;;;;;;;6.50;3.13;;;10.50;1.00;;;;;;6097759;23;20441;-85
2022/01/04 07:35:36;;;;;;;5.88;3.65;;;10.50;1.00;;;;;;6123917;23;20088;-87
2022/01/04 07:38:02;;;;;;;5.28;3.05;;;10.50;1.00;;;;;;6124277;23;20362;-87
2022/01/04 07:40:28;;;;;;;5.93;3.30;;;10.50;1.00;;;;;;6123779;23;20112;-87
2022/01/04 07:42:57;;;;;;;6.22;3.63;;;10.50;1.00;;;;;;6125540;23;20018;-88
2022/01/04 07:45:23;;;;;;;8.38;3.80;;;10.50;1.00;;;;;;6124004;23;20070;-88
2022/01/04 07:47:48;;;;;;;5.47;3.90;;;10.50;1.00;;;;;;6123919;23;20005;-89
2022/01/04 07:50:14;;;;;;;5.18;3.70;;;10.50;1.00;;;;;;6124919;23;20005;-88
2022/01/04 07:52:40;;;;;;;5.35;3.22;;;10.50;1.00;;;;;;6125127;23;20002;-90
2022/01/04 07:55:06;;;;;;;5.78;3.70;;;10.50;1.00;;;;;;6124854;23;20017;-90
2022/01/04 07:57:32;;;;;;;6.20;4.03;;;10.50;1.00;;;;;;6125114;23;20008;-90
2022/01/04 07:59:57;;;;;;;7.70;3.80;;;10.90;1.00;;;;;;6124713;23;20424;-89
2022/01/04 08:02:23;;;;;;;6.63;4.15;;;10.50;1.00;;;;;;6098663;23;20040;-89
2022/01/04 08:04:49;;;;;;;6.47;4.00;;;10.60;1.00;;;;;;6125105;23;20029;-89
2022/01/04 08:07:14;;;;;;;8.13;4.45;;;10.60;1.00;;;;;;6099512;23;20463;-88
2022/01/04 08:09:41;;;;;;;6.25;4.60;;;10.50;1.00;;;;;;6125643;23;20009;-89
2022/01/04 08:12:07;;;;;;;5.47;3.85;;;10.60;1.00;;;;;;6124569;23;20008;-86
2022/01/04 08:14:33;;;;;;;7.32;3.88;;;10.60;1.00;;;;;;6123971;23;20025;-87
2022/01/04 08:16:59;;;;;;;6.57;4.53;;;10.80;1.00;;;;;;6122855;23;20345;-87
2022/01/04 08:19:24;;;;;;;5.85;3.90;;;10.90;1.00;;;;;;6124086;23;19998;-87
2022/01/04 08:21:50;;;;;;;5.65;4.22;;;10.60;1.00;;;;;;6124204;23;20006;-87
2022/01/04 08:24:15;;;;;;;7.22;4.57;;;10.70;1.00;;;;;;6124371;23;20421;-88
2022/01/04 08:26:41;;;;;;;4.45;3.17;;;10.70;1.00;;;;;;6098781;23;20012;-88
2022/01/04 08:29:07;;;;;;;6.68;4.05;;;10.70;1.00;;;;;;6126206;23;20425;-90
2022/01/04 08:31:32;;;;;;;6.00;3.55;;;10.80;1.00;;;;;;6125621;23;20080;-88
2022/01/04 08:33:59;;;;;;;5.88;3.97;;;10.80;1.00;;;;;;6125770;23;20002;-85
2022/01/04 08:36:27;;;;;;;5.28;2.92;;;10.90;1.00;;;;;;6100045;23;20096;-86
2022/01/04 08:38:53;;;;;;;7.05;4.20;;;10.90;1.00;;;;;;6126180;23;20005;-87
2022/01/04 08:41:19;;;;;;;5.43;3.17;;;10.90;1.00;;;;;;6125232;23;20445;-86
2022/01/04 08:43:45;;;;;;;5.03;3.22;;;10.90;1.00;;;;;;6125739;23;20012;-86
2022/01/04 08:46:11;;;;;;;5.25;3.50;;;11.60;1.00;;;;;;6125225;23;20012;-88
2022/01/04 08:48:37;;;;;;;4.97;4.05;;;11.20;1.00;;;;;;6126094;23;20013;-87
2022/01/04 08:51:03;;;;;;;6.40;3.65;;;11.20;1.00;;;;;;6100019;23;20006;-88
2022/01/04 08:53:28;;;;;;;8.30;3.95;;;11.60;1.00;;;;;;6099111;23;20013;-87
2022/01/04 08:55:56;;;;;;;4.75;3.05;;;11.10;1.00;;;;;;6099511;23;20029;-86
2022/01/04 08:58:22;;;;;;;5.55;3.72;;;11.10;1.00;;;;;;6126169;23;20009;-86
2022/01/04 09:00:48;;;;;;;5.70;3.58;;;11.20;1.00;;;;;;6124712;23;20014;-87
2022/01/04 09:03:14;;;;;;;4.53;3.35;;;11.10;1.00;;;;;;6125248;23;20378;-85
2022/01/04 09:05:39;;;;;;;6.72;3.95;;;11.10;1.00;;;;;;6125731;23;20010;-86
2022/01/04 09:08:05;;;;;;;6.10;3.85;;;11.10;1.00;;;;;;6125717;23;20034;-87
2022/01/04 09:10:32;;;;;;;5.95;4.68;;;11.20;1.00;;;;;;6126215;23;20081;-86
2022/01/04 09:13:07;;;;;;;7.03;4.30;;;11.20;1.00;;;;;;6125832;23;20017;-85
2022/01/04 09:20:52;;;;;;;6.80;4.65;;;11.30;1.00;;;;;;6125769;23;20119;-87
2022/01/04 09:23:20;;;;;;;11.25;5.95;;;11.40;1.00;;;;;;6126396;23;20006;-87
2022/01/04 09:25:51;;;;;;;7.40;4.93;;;11.40;1.00;;;;;;6099294;23;20502;-87
2022/01/04 09:28:18;;;;;;;6.95;4.90;;;11.40;1.00;;;;;;6099764;23;20097;-88
2022/01/04 09:30:46;;;;;;;8.38;5.75;;;11.60;1.00;;;;;;6125293;23;20140;-88
2022/01/04 09:33:12;;;;;;;10.75;5.93;;;11.60;1.00;;;;;;6099716;23;20005;-88
2022/01/04 09:35:38;;;;;;;7.82;6.03;;;11.60;1.00;;;;;;6125890;23;20022;-87
2022/01/04 09:38:05;;;;;;;10.82;7.38;;;12.00;1.00;;;;;;6099446;23;20059;-88
2022/01/04 09:40:35;;;;;;;13.40;7.65;;;12.50;1.00;;;;;;6098736;23;20010;-88
2022/01/04 09:43:04;;;;;;;10.88;7.97;;;12.70;1.00;;;;;;6125397;23;20006;-88
2022/01/04 09:45:30;;;;;;;12.23;7.78;;;12.50;1.00;;;;;;6125374;23;20010;-87
2022/01/04 09:47:56;;;;;;;9.32;7.50;;;12.20;1.00;;;;;;6124912;23;20002;-86
2022/01/04 09:50:22;;;;;;;10.32;7.15;;;12.90;1.00;;;;;;6098689;23;20021;-87
2022/01/04 09:52:49;;;;;;;7.47;5.53;;;13.00;1.00;;;;;;6125392;23;20006;-88
2022/01/04 09:55:17;;;;;;;9.70;6.47;;;12.70;1.00;;;;;;6124920;23;20013;-87
2022/01/04 09:57:45;;;;;;;10.43;7.40;;;12.60;1.00;;;;;;6124904;23;20009;-87
2022/01/04 10:00:14;;;;;;;9.70;6.50;;;12.90;1.00;;;;;;6124307;23;20476;-85
2022/01/04 10:02:42;;;;;;;9.48;6.50;;;12.90;1.00;;;;;;6126502;23;20496;-92
2022/01/04 10:05:22;;;;;;;12.32;8.23;;;12.80;1.00;;;;;;6126513;23;20009;-90
2022/01/04 10:07:58;;;;;;;12.48;7.95;;;12.40;1.00;;;;;;6099895;23;20017;-91
2022/01/04 10:10:24;;;;;;;10.80;8.20;;;12.60;1.00;;;;;;6126814;23;20029;-92
2022/01/04 10:12:56;;;;;;;10.48;7.68;;;13.20;1.00;;;;;;6101314;23;20006;-93
2022/01/04 10:15:36;;;;;;;11.70;7.70;;;13.50;1.00;;;;;;6125193;23;20014;-90
2022/01/04 10:18:24;;;;;;;8.77;6.43;;;13.40;1.00;;;;;;6126121;23;20005;-91
2022/01/04 10:20:59;;;;;;;10.70;8.18;;;13.80;1.00;;;;;;6126028;23;20008;-91
2022/01/04 10:23:25;;;;;;;15.77;9.60;;;14.00;1.00;;;;;;6125787;23;20006;-90
2022/01/04 10:26:00;;;;;;;15.10;10.10;;;13.80;1.00;;;;;;6124673;23;20060;-89
2022/01/04 10:28:31;;;;;;;14.40;9.57;;;13.70;1.00;;;;;;6100014;23;20010;-89
2022/01/04 10:31:11;;;;;;;12.88;8.80;;;13.30;1.00;;;;;;6099696;23;20002;-89
2022/01/04 10:33:37;;;;;;;17.60;11.90;;;13.00;1.00;;;;;;6125303;23;20322;-86
2022/01/04 10:36:11;;;;;;;15.82;10.85;;;12.90;1.00;;;;;;6125110;23;20028;-88
2022/01/04 10:38:46;;;;;;;16.85;9.43;;;13.00;1.00;;;;;;6125142;23;20065;-89
2022/01/04 10:41:26;;;;;;;12.52;8.15;;;12.70;1.00;;;;;;6123711;23;20002;-86
2022/01/04 10:43:59;;;;;;;12.02;7.68;;;12.50;1.00;;;;;;6124478;23;20453;-86
2022/01/04 10:46:33;;;;;;;13.52;10.20;;;12.50;1.00;;;;;;6098994;23;20397;-87
2022/01/04 10:48:59;;;;;;;15.95;9.60;;;12.70;1.00;;;;;;6125238;23;20010;-87
2022/01/04 10:51:26;;;;;;;13.48;8.73;;;12.80;1.00;;;;;;6125255;23;20456;-88
2022/01/04 10:54:00;;;;;;;13.52;9.02;;;12.90;1.00;;;;;;6098140;23;20314;-87
2022/01/04 10:56:33;;;;;;;13.23;8.40;;;12.70;1.00;;;;;;6123888;23;20036;-89
2022/01/04 10:59:06;;;;;;;13.68;9.18;;;12.60;1.00;;;;;;6125235;23;20057;-86
2022/01/04 11:01:46;;;;;;;12.57;9.35;;;12.80;1.00;;;;;;6123839;23;20009;-84
2022/01/04 11:04:19;;;;;;;13.32;8.65;;;12.60;1.00;;;;;;6124552;23;19998;-85
2022/01/04 11:06:47;;;;;;;11.63;7.65;;;12.80;1.00;;;;;;6123740;23;20006;-87
2022/01/04 11:09:13;;;;;;;13.60;8.93;;;13.00;1.00;;;;;;6124877;23;20057;-87
2022/01/04 11:11:40;;;;;;;10.80;8.07;;;13.30;1.00;;;;;;6123566;23;20017;-86
2022/01/04 11:14:10;;;;;;;11.30;8.73;;;13.40;1.00;;;;;;6123981;23;20507;-88
2022/01/04 11:16:36;;;;;;;12.60;8.52;;;13.30;1.00;;;;;;6125373;23;20018;-85
2022/01/04 11:19:03;;;;;;;11.30;7.45;;;14.90;1.00;;;;;;6124342;23;20008;-85
2022/01/04 11:21:37;;;;;;;14.57;8.63;;;13.70;1.00;;;;;;6124664;23;20508;-90
2022/01/04 11:24:06;;;;;;;9.13;6.40;;;13.60;1.00;;;;;;6123705;23;20002;-88
2022/01/04 11:26:32;;;;;;;11.23;6.70;;;14.50;1.00;;;;;;6098963;23;20437;-89
2022/01/04 11:28:58;;;;;;;10.55;7.75;;;14.00;1.00;;;;;;6098568;23;20060;-88
2022/01/04 11:32:04;;;;;;;12.88;8.02;;;13.70;1.00;;;;;;6099063;23;20006;-88
2022/01/04 11:34:55;;;;;;;11.30;7.22;;;13.80;1.00;;;;;;6124133;23;20744;-85
2022/01/04 11:37:22;;;;;;;10.50;7.03;;;14.40;1.00;;;;;;6117065;23;20017;-87
2022/01/04 11:39:50;;;;;;;9.55;6.82;;;14.80;1.00;;;;;;6123940;23;20010;-88
2022/01/04 11:42:38;;;;;;;11.30;6.45;;;14.90;1.00;;;;;;6124646;23;20069;-89
2022/01/04 11:45:09;;;;;;;12.07;5.53;;;14.30;1.00;;;;;;6098559;23;20006;-87
2022/01/04 11:47:37;;;;;;;7.63;5.88;;;14.60;1.00;;;;;;6124114;23;20057;-87
2022/01/04 11:50:24;;;;;;;10.85;6.75;;;14.30;1.00;;;;;;6097102;23;20442;-87
2022/01/04 11:52:59;;;;;;;8.93;5.07;;;15.30;1.00;;;;;;6098322;23;20097;-86
2022/01/04 11:55:37;;;;;;;9.15;5.78;;;16.20;1.00;;;;;;6123677;23;20221;-89
2022/01/04 11:58:13;;;;;;;7.90;5.00;;;15.60;1.00;;;;;;6123813;23;20009;-86
2022/01/04 12:00:45;;;;;;;8.43;5.53;;;15.30;1.00;;;;;;6124679;23;20013;-91
2022/01/04 12:03:12;;;;;;;9.85;6.18;;;14.90;1.00;;;;;;6126572;23;20006;-92
2022/01/04 12:05:47;;;;;;;12.05;6.80;;;16.60;1.00;;;;;;6124893;23;20449;-88
2022/01/04 12:08:18;;;;;;;10.48;6.22;;;16.70;1.00;;;;;;6125815;23;20005;-91
2022/01/04 12:10:44;;;;;;;7.22;5.00;;;15.20;1.00;;;;;;6127373;23;20006;-87
2022/01/04 12:13:17;;;;;;;8.50;5.32;;;15.60;1.00;;;;;;6126841;23;20013;-90
2022/01/04 12:15:45;;;;;;;8.15;5.15;;;16.10;1.00;;;;;;6125982;23;20064;-89
2022/01/04 12:18:23;;;;;;;7.93;6.10;;;16.00;1.00;;;;;;6101190;23;20467;-86
2022/01/04 12:20:58;;;;;;;8.93;6.32;;;15.80;1.00;;;;;;6125337;23;20013;-90
2022/01/04 12:23:30;;;;;;;6.90;4.78;;;15.00;1.00;;;;;;6125537;23;20310;-87
2022/01/04 12:26:04;;;;;;;7.93;5.85;;;14.60;1.00;;;;;;6125990;23;20006;-86
2022/01/04 12:28:31;;;;;;;7.82;4.97;;;14.50;1.00;;;;;;6125570;23;20452;-87
2022/01/04 12:31:18;;;;;;;10.27;5.07;;;14.30;1.00;;;;;;6125654;23;20455;-87
2022/01/04 12:33:51;;;;;;;8.43;5.88;;;14.30;1.00;;;;;;6125531;23;20005;-87
2022/01/04 12:36:25;;;;;;;8.30;5.40;;;14.40;1.00;;;;;;6125873;23;20014;-88
2022/01/04 12:38:53;;;;;;;10.15;5.80;;;14.50;1.00;;;;;;6100481;23;20337;-89
2022/01/04 12:41:19;;;;;;;8.57;6.07;;;14.30;1.00;;;;;;6124391;23;20017;-88
2022/01/04 12:43:47;;;;;;;10.23;5.40;;;14.40;1.00;;;;;;6125610;23;20005;-88
2022/01/04 12:46:14;;;;;;;8.90;6.03;;;14.40;1.00;;;;;;6126346;23;20125;-89
2022/01/04 12:48:51;;;;;;;11.13;6.15;;;15.00;1.00;;;;;;6100190;23;20006;-88
2022/01/04 12:51:52;;;;;;;7.55;5.55;;;15.80;1.00;;;;;;6124726;23;20002;-88
2022/01/04 12:54:22;;;;;;;9.63;6.13;;;15.60;1.00;;;;;;5979671;24;20011;-88
2022/01/04 12:56:53;;;;;;;8.60;6.03;;;15.50;1.00;;;;;;5979986;24;20027;-89
2022/01/04 12:59:24;;;;;;;9.32;5.22;;;15.20;1.00;;;;;;5979516;24;20004;-88
2022/01/04 13:01:55;;;;;;;8.30;5.35;;;15.40;1.00;;;;;;5980446;24;20012;-88
2022/01/04 13:04:26;;;;;;;7.40;4.93;;;16.00;1.00;;;;;;5979034;24;20032;-88
2022/01/04 13:06:53;;;;;;;8.73;5.30;;;15.60;1.00;;;;;;5979697;24;20428;-88
2022/01/04 13:09:21;;;;;;;6.07;4.00;;;14.80;1.00;;;;;;5979065;24;20047;-89
2022/01/04 13:11:49;;;;;;;10.55;6.45;;;14.20;1.00;;;;;;5956258;24;20068;-89